Terminal Aerodrome Forecast
Issued by NWS Melbourne, FL

Home | Current Version | Previous Version | Text Only | Print | Product List | Glossary On
Versions: 1 2 3 4 5 6 7 8 9 10 11 12 13 14 15 16 17 18
000
FTUS42 KMLB 161800 AAA
TAFMLB
TAF AMD
KMLB 161851Z 1619/1718 10009KT P6SM VCTS SCT040CB BKN060
      TEMPO 1619/1621 VRB20G30KT 2SM TSRA BKN030CB BKN040
     FM170100 26004KT P6SM SCT080 OVC150
     FM171400 25010KT P6SM FEW020 SCT120 SCT250=

USA.gov is the U.S. government's official web portal to all federal, state and local government web resources and services.